createdAt,value
2023-03-01T00:00:00.492Z,101618.44
2023-03-01T00:02:33.542Z,101618.72
2023-03-01T00:05:01.343Z,101621.66
2023-03-01T00:07:29.051Z,101618.50
2023-03-01T00:09:57.034Z,101620.25
2023-03-01T00:12:26.269Z,101613.00
2023-03-01T00:14:56.686Z,101618.06
2023-03-01T00:17:28.804Z,101602.84
2023-03-01T00:19:59.720Z,101619.44
2023-03-01T00:22:30.947Z,101611.53
2023-03-01T00:24:58.587Z,101619.75
2023-03-01T00:27:26.567Z,101609.16
2023-03-01T00:30:10.456Z,101596.88
2023-03-01T00:32:42.661Z,101603.59
2023-03-01T00:35:11.242Z,101613.25
2023-03-01T00:37:38.997Z,101611.34
2023-03-01T00:40:09.791Z,101622.56
2023-03-01T00:42:37.220Z,101620.50
2023-03-01T00:45:09.053Z,101616.09
2023-03-01T00:47:38.720Z,101614.00
2023-03-01T00:50:10.095Z,101627.72
2023-03-01T00:52:38.418Z,101625.09
2023-03-01T00:55:06.819Z,101625.66
2023-03-01T00:57:44.862Z,101632.25
2023-03-01T01:00:13.270Z,101636.50
2023-03-01T01:02:42.901Z,101619.53
2023-03-01T01:05:20.741Z,101620.44
2023-03-01T01:10:33.002Z,101619.44
2023-03-01T01:13:07.087Z,101624.00
2023-03-01T01:15:42.837Z,101617.31
2023-03-01T01:18:18.745Z,101620.50
2023-03-01T01:20:54.816Z,101610.47
2023-03-01T01:23:33.156Z,101610.75
2023-03-01T01:26:31.777Z,101609.66
2023-03-01T01:29:00.555Z,101605.97
2023-03-01T01:31:31.139Z,101601.53
2023-03-01T01:34:00.385Z,101594.97
2023-03-01T01:36:28.126Z,101597.47
2023-03-01T01:38:57.252Z,101602.88
2023-03-01T01:41:26.157Z,101588.94
2023-03-01T01:44:24.636Z,101582.75
2023-03-01T01:46:54.339Z,101593.94
2023-03-01T01:49:52.108Z,101582.41
2023-03-01T01:52:28.791Z,101595.84
2023-03-01T01:55:10.496Z,101593.66
2023-03-01T01:57:43.223Z,101592.97
2023-03-01T02:00:18.515Z,101597.91
2023-03-01T02:02:57.845Z,101600.28
2023-03-01T02:05:42.940Z,101609.66
2023-03-01T02:08:14.779Z,101603.78
2023-03-01T02:10:45.594Z,101601.63
2023-03-01T02:13:13.613Z,101604.38
2023-03-01T02:15:46.319Z,101605.31
2023-03-01T02:18:19.673Z,101603.31
2023-03-01T02:21:06.846Z,101603.44
2023-03-01T02:23:35.533Z,101604.00
2023-03-01T02:26:20.749Z,101605.81
2023-03-01T02:28:51.661Z,101600.91
2023-03-01T02:31:42.567Z,101598.09
2023-03-01T02:34:18.778Z,101598.22
2023-03-01T02:36:51.217Z,101601.34
2023-03-01T02:39:29.898Z,101601.59
2023-03-01T02:42:00.165Z,101597.41
2023-03-01T02:44:30.145Z,101595.00
2023-03-01T02:47:04.586Z,101588.78
2023-03-01T02:49:40.897Z,101600.91
2023-03-01T02:52:43.049Z,101589.94
2023-03-01T02:55:21.887Z,101595.34
2023-03-01T02:57:53.024Z,101599.69
2023-03-01T03:00:26.673Z,101588.94
2023-03-01T03:02:58.432Z,101594.75
2023-03-01T03:05:29.846Z,101587.47
2023-03-01T03:08:03.501Z,101586.56
2023-03-01T03:10:44.000Z,101576.16
2023-03-01T03:13:14.887Z,101578.69
2023-03-01T03:15:45.325Z,101571.13
2023-03-01T03:18:23.294Z,101569.69
2023-03-01T03:20:55.805Z,101567.91
2023-03-01T03:23:31.062Z,101573.81
2023-03-01T03:26:01.142Z,101576.69
2023-03-01T03:28:29.456Z,101568.88
2023-03-01T03:30:56.637Z,101574.53
2023-03-01T03:33:23.915Z,101571.47
2023-03-01T03:35:51.927Z,101576.13
2023-03-01T03:38:27.308Z,101576.19
2023-03-01T03:41:10.135Z,101581.94
2023-03-01T03:43:42.394Z,101571.84
2023-03-01T03:46:13.846Z,101571.31
2023-03-01T03:48:49.928Z,101572.00
2023-03-01T03:54:06.720Z,101569.34
2023-03-01T03:56:34.378Z,101563.44
2023-03-01T04:01:45.907Z,101570.88
2023-03-01T04:04:20.114Z,101558.88
2023-03-01T04:06:47.469Z,101572.41
2023-03-01T04:09:14.772Z,101573.53
2023-03-01T04:11:42.905Z,101573.09
2023-03-01T04:14:12.864Z,101568.38
2023-03-01T04:16:48.838Z,101574.41
2023-03-01T04:19:19.394Z,101572.22
2023-03-01T04:21:49.056Z,101575.69
2023-03-01T04:24:32.406Z,101576.09
2023-03-01T04:27:07.701Z,101567.78
2023-03-01T04:29:42.412Z,101573.00
2023-03-01T04:32:24.297Z,101578.09
2023-03-01T04:34:59.137Z,101585.75
2023-03-01T04:37:26.765Z,101578.06
2023-03-01T04:39:54.762Z,101575.69
2023-03-01T04:42:22.085Z,101573.22
2023-03-01T04:44:54.728Z,101575.78
2023-03-01T04:47:24.526Z,101585.00
2023-03-01T04:49:54.794Z,101578.97
2023-03-01T04:52:28.270Z,101568.75
2023-03-01T04:55:02.633Z,101576.19
2023-03-01T04:57:33.836Z,101582.22
2023-03-01T05:00:21.630Z,101584.38
2023-03-01T05:03:01.922Z,101575.59
2023-03-01T05:05:35.138Z,101572.66
2023-03-01T05:08:09.780Z,101578.06
2023-03-01T05:10:42.384Z,101580.31
2023-03-01T05:13:11.162Z,101581.56
2023-03-01T05:15:41.607Z,101580.50
2023-03-01T05:18:14.955Z,101591.13
2023-03-01T05:20:46.031Z,101595.56
2023-03-01T05:23:21.925Z,101599.84
2023-03-01T05:25:50.821Z,101603.31
2023-03-01T05:28:23.751Z,101599.59
2023-03-01T05:30:52.915Z,101602.06
2023-03-01T05:33:23.451Z,101597.63
2023-03-01T05:35:55.508Z,101594.25
2023-03-01T05:38:28.090Z,101602.66
2023-03-01T05:40:58.108Z,101604.25
2023-03-01T05:43:27.858Z,101605.16
2023-03-01T05:45:57.199Z,101601.91
2023-03-01T05:48:29.614Z,101608.31
2023-03-01T05:51:04.358Z,101605.56
2023-03-01T05:53:47.887Z,101607.09
2023-03-01T05:56:17.112Z,101611.84
2023-03-01T05:58:44.447Z,101609.13
2023-03-01T06:01:15.348Z,101616.69
2023-03-01T06:03:45.965Z,101607.69
2023-03-01T06:06:16.285Z,101612.69
2023-03-01T06:08:46.575Z,101614.03
2023-03-01T06:11:19.715Z,101615.25
2023-03-01T06:13:52.135Z,101607.50
2023-03-01T06:16:22.859Z,101601.81
2023-03-01T06:18:50.326Z,101605.84
2023-03-01T06:21:17.834Z,101602.47
2023-03-01T06:23:48.215Z,101600.06
2023-03-01T06:26:19.442Z,101598.38
2023-03-01T06:28:49.615Z,101606.44
2023-03-01T06:31:22.116Z,101593.81
2023-03-01T06:34:01.602Z,101602.69
2023-03-01T06:36:34.461Z,101603.72
2023-03-01T06:39:07.909Z,101607.16
2023-03-01T06:41:48.007Z,101606.72
2023-03-01T06:44:31.888Z,101609.44
2023-03-01T06:50:02.474Z,101624.03
2023-03-01T06:52:35.345Z,101622.16
2023-03-01T06:55:07.390Z,101620.75
2023-03-01T06:57:45.589Z,101624.63
2023-03-01T07:00:20.629Z,101621.75
2023-03-01T07:02:53.408Z,101614.75
2023-03-01T07:05:29.874Z,101623.00
2023-03-01T07:08:04.430Z,101622.22
2023-03-01T07:10:35.316Z,101616.34
2023-03-01T07:13:08.326Z,101622.50
2023-03-01T07:15:40.715Z,101626.25
2023-03-01T07:18:18.980Z,101626.88
2023-03-01T07:20:52.097Z,101626.88
2023-03-01T07:23:21.051Z,101626.88
2023-03-01T07:26:09.774Z,101622.31
2023-03-01T07:28:49.507Z,101615.22
2023-03-01T07:31:26.303Z,101625.44
2023-03-01T07:34:09.179Z,101620.22
2023-03-01T07:39:42.237Z,101626.78
2023-03-01T07:42:11.194Z,101630.56
2023-03-01T07:44:43.445Z,101641.72
2023-03-01T07:47:15.525Z,101639.47
2023-03-01T07:50:00.783Z,101638.66
2023-03-01T07:52:36.236Z,101632.88
2023-03-01T07:55:36.094Z,101631.53
2023-03-01T07:58:12.475Z,101644.63
2023-03-01T08:00:45.687Z,101647.78
2023-03-01T08:03:21.278Z,101644.75
2023-03-01T08:05:49.566Z,101647.56
2023-03-01T08:08:29.953Z,101632.97
2023-03-01T08:11:05.281Z,101641.53
2023-03-01T08:13:51.779Z,101633.41
2023-03-01T08:16:24.083Z,101635.03
2023-03-01T08:19:00.606Z,101649.91
2023-03-01T08:21:27.988Z,101649.22
2023-03-01T08:23:55.549Z,101657.53
2023-03-01T08:26:23.496Z,101639.78
2023-03-01T08:28:53.465Z,101644.97
2023-03-01T08:31:31.050Z,101635.28
2023-03-01T08:34:02.677Z,101633.91
2023-03-01T08:36:41.588Z,101639.97
2023-03-01T08:39:11.272Z,101636.69
2023-03-01T08:41:48.280Z,101643.13
2023-03-01T08:44:18.930Z,101630.09
2023-03-01T08:46:51.333Z,101636.66
2023-03-01T08:49:26.586Z,101629.72
2023-03-01T08:52:00.710Z,101634.50
2023-03-01T08:54:37.268Z,101628.09
2023-03-01T08:57:04.839Z,101627.88
2023-03-01T08:59:37.029Z,101630.63
2023-03-01T09:02:14.246Z,101632.75
2023-03-01T09:04:42.041Z,101622.69
2023-03-01T09:07:10.505Z,101617.66
2023-03-01T09:09:38.755Z,101604.88
2023-03-01T09:12:06.239Z,101604.69
2023-03-01T09:14:34.427Z,101607.56
2023-03-01T09:17:04.291Z,101612.50
2023-03-01T09:19:32.023Z,101611.25
2023-03-01T09:21:59.667Z,101599.66
2023-03-01T09:24:27.039Z,101598.28
2023-03-01T09:26:57.123Z,101590.91
2023-03-01T09:29:25.092Z,101590.06
2023-03-01T09:31:52.813Z,101587.06
2023-03-01T09:34:24.523Z,101590.03
2023-03-01T09:36:52.532Z,101582.75
2023-03-01T09:39:21.611Z,101581.56
2023-03-01T09:42:08.494Z,101575.75
2023-03-01T09:45:03.262Z,101579.81
2023-03-01T09:47:41.601Z,101576.03
2023-03-01T09:50:17.615Z,101565.91
2023-03-01T09:52:48.670Z,101561.03
2023-03-01T09:55:21.934Z,101556.00
2023-03-01T09:57:55.504Z,101559.41
2023-03-01T10:00:22.675Z,101557.97
2023-03-01T10:03:19.690Z,101551.41
2023-03-01T10:06:23.975Z,101553.31
2023-03-01T10:09:12.267Z,101555.19
2023-03-01T10:11:43.856Z,101558.69
2023-03-01T10:14:42.602Z,101548.03
2023-03-01T10:17:23.467Z,101556.09
2023-03-01T10:19:50.733Z,101542.59
2023-03-01T10:22:29.285Z,101551.22
2023-03-01T10:25:01.123Z,101541.03
2023-03-01T10:27:54.508Z,101547.34
2023-03-01T10:30:43.426Z,101545.69
2023-03-01T10:33:34.244Z,101544.06
2023-03-01T10:36:02.956Z,101539.81
2023-03-01T10:38:47.996Z,101526.38
2023-03-01T10:41:15.775Z,101526.41
2023-03-01T10:43:49.582Z,101527.53
2023-03-01T10:46:27.586Z,101518.00
2023-03-01T10:49:17.760Z,101526.75
2023-03-01T10:51:49.044Z,101517.34
2023-03-01T10:54:51.804Z,101527.00
2023-03-01T10:57:42.861Z,101521.59
2023-03-01T11:00:27.479Z,101516.53
2023-03-01T11:03:01.010Z,101512.75
2023-03-01T11:05:31.328Z,101518.75
2023-03-01T11:08:00.055Z,101511.50
2023-03-01T11:10:33.858Z,101504.00
2023-03-01T11:13:19.779Z,101495.72
2023-03-01T11:16:10.271Z,101491.66
2023-03-01T11:18:47.517Z,101491.94
2023-03-01T11:21:19.953Z,101494.22
2023-03-01T11:23:53.687Z,101493.03
2023-03-01T11:26:25.020Z,101486.88
2023-03-01T11:28:59.112Z,101489.84
2023-03-01T11:31:29.191Z,101469.53
2023-03-01T11:34:11.628Z,101483.59
2023-03-01T11:36:58.282Z,101474.56
2023-03-01T11:39:41.626Z,101472.44
2023-03-01T11:42:31.176Z,101473.59
2023-03-01T11:45:03.768Z,101467.94
2023-03-01T11:47:31.339Z,101468.28
2023-03-01T11:50:17.065Z,101464.06
2023-03-01T11:52:51.034Z,101455.03
2023-03-01T11:55:36.537Z,101458.19
2023-03-01T11:58:23.956Z,101449.00
2023-03-01T12:01:05.675Z,101445.31
2023-03-01T12:04:03.580Z,101437.03
2023-03-01T12:06:44.909Z,101447.94
2023-03-01T12:09:39.927Z,101443.25
2023-03-01T12:12:22.656Z,101436.94
2023-03-01T12:15:29.938Z,101407.56
2023-03-01T12:18:11.293Z,101422.84
2023-03-01T12:20:49.533Z,101411.84
2023-03-01T12:23:36.443Z,101419.22
2023-03-01T12:26:14.457Z,101416.94
2023-03-01T12:29:02.145Z,101419.25
2023-03-01T12:32:06.111Z,101411.03
2023-03-01T12:34:43.464Z,101401.19
2023-03-01T12:37:50.500Z,101406.41
2023-03-01T12:40:31.624Z,101402.84
2023-03-01T12:43:29.336Z,101394.44
2023-03-01T12:46:12.557Z,101391.16
2023-03-01T12:49:10.668Z,101389.41
2023-03-01T12:51:44.646Z,101375.78
2023-03-01T12:54:31.057Z,101364.03
2023-03-01T12:57:22.063Z,101364.19
2023-03-01T13:00:15.422Z,101361.88
2023-03-01T13:03:03.448Z,101378.00
2023-03-01T13:06:06.462Z,101362.00
2023-03-01T13:08:55.570Z,101352.94
2023-03-01T13:11:28.968Z,101338.75
2023-03-01T13:14:24.523Z,101333.47
2023-03-01T13:17:02.262Z,101326.72
2023-03-01T13:19:37.227Z,101332.41
2023-03-01T13:22:32.736Z,101327.66
2023-03-01T13:25:21.014Z,101333.00
2023-03-01T13:28:31.362Z,101336.69
2023-03-01T13:31:07.914Z,101346.72
2023-03-01T13:33:47.730Z,101340.19
2023-03-01T13:36:48.129Z,101328.84
2023-03-01T13:39:27.803Z,101337.22
2023-03-01T13:42:01.489Z,101331.03
2023-03-01T13:44:37.735Z,101316.69
2023-03-01T13:47:07.485Z,101311.84
2023-03-01T13:50:05.677Z,101316.94
2023-03-01T13:52:58.952Z,101306.91
2023-03-01T13:55:49.451Z,101310.97
2023-03-01T13:58:29.920Z,101305.00
2023-03-01T14:01:22.820Z,101301.88
2023-03-01T14:06:46.976Z,101314.88
2023-03-01T14:09:21.908Z,101304.03
2023-03-01T14:12:09.661Z,101302.81
2023-03-01T14:14:43.272Z,101289.97
2023-03-01T14:17:13.145Z,101299.19
2023-03-01T14:22:50.168Z,101294.84
2023-03-01T14:26:04.132Z,101280.34
2023-03-01T14:28:54.307Z,101281.34
2023-03-01T14:31:51.778Z,101278.81
2023-03-01T14:34:39.503Z,101265.47
2023-03-01T14:37:28.808Z,101276.72
2023-03-01T14:40:11.473Z,101288.06
2023-03-01T14:42:58.400Z,101277.97
2023-03-01T14:45:39.340Z,101270.47
2023-03-01T14:48:10.799Z,101278.03
2023-03-01T14:50:51.240Z,101287.13
2023-03-01T14:53:51.009Z,101273.66
2023-03-01T14:56:28.790Z,101287.16
2023-03-01T14:59:00.888Z,101278.03
2023-03-01T15:01:33.619Z,101271.97
2023-03-01T15:04:07.844Z,101268.59
2023-03-01T15:06:39.154Z,101263.69
2023-03-01T15:09:13.749Z,101265.16
2023-03-01T15:11:45.504Z,101266.66
2023-03-01T15:15:03.457Z,101264.31
2023-03-01T15:17:41.496Z,101251.13
2023-03-01T15:20:39.768Z,101261.28
2023-03-01T15:23:22.387Z,101264.78
2023-03-01T15:26:00.431Z,101254.31
2023-03-01T15:28:37.003Z,101251.69
2023-03-01T15:31:10.285Z,101253.59
2023-03-01T15:33:42.135Z,101256.81
2023-03-01T15:36:34.010Z,101242.47
2023-03-01T15:39:02.544Z,101255.31
2023-03-01T15:41:48.137Z,101248.06
2023-03-01T15:44:41.658Z,101247.00
2023-03-01T15:47:26.321Z,101251.50
2023-03-01T15:49:56.091Z,101255.88
2023-03-01T15:52:43.976Z,101254.56
2023-03-01T15:55:23.531Z,101250.75
2023-03-01T15:58:11.571Z,101250.13
2023-03-01T16:00:59.085Z,101248.06
2023-03-01T16:03:31.328Z,101252.44
2023-03-01T16:05:59.032Z,101249.19
2023-03-01T16:08:29.119Z,101242.44
2023-03-01T16:11:00.265Z,101239.56
2023-03-01T16:13:35.385Z,101246.69
2023-03-01T16:16:03.242Z,101237.25
2023-03-01T16:18:34.154Z,101234.88
2023-03-01T16:21:01.962Z,101232.09
2023-03-01T16:23:30.089Z,101230.91
2023-03-01T16:26:16.526Z,101237.06
2023-03-01T16:28:46.401Z,101233.03
2023-03-01T16:31:26.133Z,101236.94
2023-03-01T16:33:55.785Z,101229.13
2023-03-01T16:36:29.517Z,101237.72
2023-03-01T16:39:14.132Z,101240.97
2023-03-01T16:41:56.389Z,101245.81
2023-03-01T16:44:23.908Z,101244.03
2023-03-01T16:47:00.754Z,101259.56
2023-03-01T16:49:30.987Z,101250.16
2023-03-01T16:52:04.608Z,101245.66
2023-03-01T16:54:37.731Z,101244.91
2023-03-01T16:57:05.986Z,101260.00
2023-03-01T16:59:46.464Z,101261.09
2023-03-01T17:02:16.489Z,101256.69
2023-03-01T17:04:56.500Z,101251.09
2023-03-01T17:07:29.787Z,101255.88
2023-03-01T17:10:00.181Z,101252.91
2023-03-01T17:12:38.574Z,101256.63
2023-03-01T17:15:09.405Z,101254.78
2023-03-01T17:17:39.574Z,101251.44
2023-03-01T17:20:13.808Z,101259.06
2023-03-01T17:22:50.414Z,101268.94
2023-03-01T17:25:18.472Z,101269.47
2023-03-01T17:27:45.957Z,101264.41
2023-03-01T17:30:28.204Z,101279.09
2023-03-01T17:33:06.670Z,101274.41
2023-03-01T17:35:47.857Z,101282.72
2023-03-01T17:38:50.974Z,101276.13
2023-03-01T17:41:34.550Z,101277.22
2023-03-01T17:44:07.133Z,101296.97
2023-03-01T17:46:40.418Z,101287.31
2023-03-01T17:49:10.818Z,101299.31
2023-03-01T17:51:45.858Z,101287.81
2023-03-01T17:54:21.572Z,101303.00
2023-03-01T17:56:51.742Z,101301.13
2023-03-01T17:59:25.408Z,101300.25
2023-03-01T18:02:08.771Z,101299.38
2023-03-01T18:04:47.164Z,101305.25
2023-03-01T18:07:17.635Z,101304.78
2023-03-01T18:09:55.610Z,101306.56
2023-03-01T18:12:25.204Z,101308.75
2023-03-01T18:15:21.546Z,101319.50
2023-03-01T18:18:06.523Z,101319.81
2023-03-01T18:20:42.555Z,101330.69
2023-03-01T18:23:09.932Z,101332.66
2023-03-01T18:25:42.924Z,101338.53
2023-03-01T18:28:15.857Z,101338.38
2023-03-01T18:30:43.444Z,101342.88
2023-03-01T18:33:14.128Z,101344.06
2023-03-01T18:35:51.796Z,101346.47
2023-03-01T18:38:34.705Z,101342.13
2023-03-01T18:41:02.021Z,101355.03
2023-03-01T18:43:48.010Z,101347.63
2023-03-01T18:46:41.230Z,101353.59
2023-03-01T18:52:34.958Z,101359.25
2023-03-01T18:55:21.979Z,101356.22
2023-03-01T18:58:01.704Z,101359.44
2023-03-01T19:00:41.162Z,101362.81
2023-03-01T19:03:22.750Z,101367.81
2023-03-01T19:06:06.659Z,101370.25
2023-03-01T19:08:53.709Z,101382.75
2023-03-01T19:11:34.303Z,101372.50
2023-03-01T19:17:32.492Z,101374.47
2023-03-01T19:20:04.271Z,101378.72
2023-03-01T19:22:33.419Z,101379.72
2023-03-01T19:25:39.891Z,101386.53
2023-03-01T19:28:15.987Z,101377.75
2023-03-01T19:30:59.049Z,101377.09
2023-03-01T19:33:41.864Z,101379.94
2023-03-01T19:36:17.614Z,101383.13
2023-03-01T19:38:49.362Z,101386.81
2023-03-01T19:41:29.621Z,101383.47
2023-03-01T19:44:14.958Z,101390.28
2023-03-01T19:46:44.457Z,101380.03
2023-03-01T19:49:30.060Z,101390.69
2023-03-01T19:52:23.902Z,101394.38
2023-03-01T19:55:10.031Z,101387.16
2023-03-01T19:58:09.906Z,101396.75
2023-03-01T20:01:06.772Z,101391.56
2023-03-01T20:03:42.450Z,101396.38
2023-03-01T20:06:21.769Z,101405.00
2023-03-01T20:09:15.381Z,101396.53
2023-03-01T20:12:00.104Z,101400.94
2023-03-01T20:14:37.185Z,101408.03
2023-03-01T20:17:28.875Z,101408.78
2023-03-01T20:20:09.326Z,101411.63
2023-03-01T20:22:43.888Z,101412.72
2023-03-01T20:25:24.773Z,101421.72
2023-03-01T20:28:00.628Z,101415.16
2023-03-01T20:30:59.122Z,101419.13
2023-03-01T20:33:32.513Z,101420.19
2023-03-01T20:36:26.608Z,101421.28
2023-03-01T20:39:12.874Z,101417.31
2023-03-01T20:41:56.512Z,101424.91
2023-03-01T20:44:43.331Z,101425.16
2023-03-01T20:47:38.672Z,101424.47
2023-03-01T20:50:22.734Z,101427.25
2023-03-01T20:53:03.421Z,101433.63
2023-03-01T20:55:37.123Z,101431.16
2023-03-01T20:58:36.840Z,101422.13
2023-03-01T21:01:34.908Z,101436.59
2023-03-01T21:04:07.480Z,101436.00
2023-03-01T21:06:43.364Z,101429.00
2023-03-01T21:09:24.594Z,101435.34
2023-03-01T21:12:17.313Z,101433.09
2023-03-01T21:17:51.206Z,101437.03
2023-03-01T21:20:34.185Z,101442.72
2023-03-01T21:23:08.777Z,101446.06
2023-03-01T21:26:30.430Z,101447.31
2023-03-01T21:29:11.520Z,101448.28
2023-03-01T21:31:50.991Z,101452.75
2023-03-01T21:34:30.966Z,101455.28
2023-03-01T21:37:16.848Z,101456.34
2023-03-01T21:39:56.290Z,101453.88
2023-03-01T21:42:51.034Z,101451.63
2023-03-01T21:45:36.330Z,101455.91
2023-03-01T21:48:16.537Z,101463.53
2023-03-01T21:50:55.505Z,101459.44
2023-03-01T21:53:31.753Z,101459.91
2023-03-01T21:56:30.136Z,101463.47
2023-03-01T22:02:42.851Z,101465.22
2023-03-01T22:05:14.298Z,101462.88
2023-03-01T22:07:53.296Z,101459.91
2023-03-01T22:10:38.475Z,101458.72
2023-03-01T22:13:17.816Z,101457.13
2023-03-01T22:16:05.248Z,101460.44
2023-03-01T22:18:40.962Z,101460.94
2023-03-01T22:21:16.378Z,101466.34
2023-03-01T22:23:51.476Z,101469.09
2023-03-01T22:26:47.978Z,101466.13
2023-03-01T22:29:27.746Z,101468.38
2023-03-01T22:32:05.630Z,101470.91
2023-03-01T22:34:41.663Z,101465.03
2023-03-01T22:37:16.282Z,101466.94
2023-03-01T22:39:59.149Z,101465.22
2023-03-01T22:42:35.386Z,101467.56
2023-03-01T22:45:19.280Z,101470.47
2023-03-01T22:48:02.935Z,101461.56
2023-03-01T22:50:45.443Z,101471.91
2023-03-01T22:53:22.353Z,101472.09
2023-03-01T22:56:38.770Z,101471.41
2023-03-01T22:59:25.802Z,101475.25
2023-03-01T23:02:04.761Z,101474.25
2023-03-01T23:04:47.212Z,101474.13
2023-03-01T23:07:20.483Z,101478.13
2023-03-01T23:09:56.362Z,101477.53
2023-03-01T23:12:36.070Z,101473.19
2023-03-01T23:15:15.296Z,101479.91
2023-03-01T23:17:53.507Z,101482.09
2023-03-01T23:20:29.185Z,101485.78
2023-03-01T23:23:04.144Z,101478.97
2023-03-01T23:26:14.813Z,101480.84
2023-03-01T23:28:49.965Z,101488.72
2023-03-01T23:31:22.787Z,101477.19
2023-03-01T23:33:57.042Z,101478.06
2023-03-01T23:36:35.509Z,101478.06
2023-03-01T23:39:10.880Z,101471.47
2023-03-01T23:41:45.805Z,101471.53
2023-03-01T23:44:22.905Z,101468.78
2023-03-01T23:46:57.441Z,101474.78
2023-03-01T23:49:41.986Z,101467.44
2023-03-01T23:52:27.519Z,101472.34
2023-03-01T23:55:15.032Z,101470.13
2023-03-01T23:57:53.482Z,101466.84
